Time;durP1;ratioP1;P1;durP2;ratioP2;P2;SDS_P1;SDS_P2;PMS_P1;PMS_P2;Temp;Humidity;BMP_temperature;BMP_pressure;BME280_temperature;BME280_humidity;BME280_pressure;Samples;Min_cycle;Max_cycle;Signal;HPM_P1;HPM_P2
2022/10/09 00:00:45;;;;;;;14.70;6.60;;;;;;;7.52;nan;102417.41;5072181;28;20032;-55
2022/10/09 00:03:11;;;;;;;13.23;6.22;;;;;;;7.19;nan;102361.34;5072123;28;20537;-59
2022/10/09 00:05:37;;;;;;;14.43;6.63;;;;;;;7.43;nan;102406.88;5071711;28;20047;-53
2022/10/09 00:08:02;;;;;;;13.07;6.75;;;;;;;7.42;nan;102410.34;5071528;28;20032;-53
2022/10/09 00:10:28;;;;;;;15.50;6.10;;;;;;;7.32;nan;102393.72;5075023;28;20090;-61
2022/10/09 00:12:54;;;;;;;12.30;5.80;;;;;;;7.41;nan;102404.25;5062889;28;20028;-54
2022/10/09 00:15:19;;;;;;;12.68;6.40;;;;;;;7.00;nan;102338.56;5071682;28;20072;-61
2022/10/09 00:17:44;;;;;;;12.07;6.20;;;;;;;7.07;nan;102358.66;5071861;28;20040;-56
2022/10/09 00:20:09;;;;;;;14.30;8.25;;;;;;;7.38;nan;102416.47;5052131;28;20025;-55
2022/10/09 00:22:35;;;;;;;13.70;7.35;;;;;;;7.37;nan;102405.09;5071797;28;20381;-60
2022/10/09 00:25:00;;;;;;;16.67;7.57;;;;;;;7.03;nan;102348.16;5061967;28;20395;-58
2022/10/09 00:27:26;;;;;;;16.70;7.53;;;;;;;7.31;nan;102405.94;5071628;28;20113;-59
2022/10/09 00:29:51;;;;;;;13.15;8.25;;;;;;;7.28;nan;102407.66;5071828;28;20039;-54
2022/10/09 00:32:17;;;;;;;25.60;8.80;;;;;;;7.00;nan;102353.38;5067745;28;20133;-57
2022/10/09 00:34:42;;;;;;;14.32;8.43;;;;;;;7.26;nan;102409.41;5071522;28;20032;-56
2022/10/09 00:37:08;;;;;;;15.85;8.45;;;;;;;7.24;nan;102403.25;5060770;28;20044;-60
2022/10/09 00:39:33;;;;;;;16.75;8.60;;;;;;;7.20;nan;102397.16;5071637;28;20545;-58
2022/10/09 00:41:59;;;;;;;15.43;8.27;;;;;;;7.20;nan;102404.13;5072201;28;20032;-57
2022/10/09 00:44:46;;;;;;;15.35;8.02;;;;;;;7.20;nan;102406.75;5075708;28;20032;-58
2022/10/09 00:47:37;;;;;;;15.48;6.85;;;;;;;7.15;nan;102396.22;5075635;28;20361;-60
2022/10/09 00:50:12;;;;;;;;;;;;;;;7.14;nan;102398.84;5057850;28;20060;-57
2022/10/09 00:52:37;;;;;;;10.73;6.72;;;;;;;7.09;nan;102392.72;5075221;28;20282;-58
2022/10/09 00:55:03;;;;;;;10.65;6.13;;;;;;;6.64;nan;102320.84;5083459;28;20036;-58
2022/10/09 00:57:30;;;;;;;18.67;7.32;;;;;;;7.07;nan;102397.94;5061863;28;20032;-59
2022/10/09 00:59:55;;;;;;;16.10;6.50;;;;;;;6.75;nan;102353.22;5074068;28;20398;-57
2022/10/09 01:02:21;;;;;;;18.15;6.72;;;;;;;6.98;nan;102397.84;5071014;28;20042;-58
2022/10/09 01:04:46;;;;;;;12.98;7.10;;;;;;;6.82;nan;102369.84;5064091;28;20043;-57
2022/10/09 01:07:24;;;;;;;11.82;6.35;;;;;;;6.95;nan;102397.84;5075124;28;20043;-55
2022/10/09 01:09:54;;;;;;;10.40;5.85;;;;;;;6.70;nan;102361.88;5074407;28;20467;-58
2022/10/09 01:12:36;;;;;;;14.63;6.38;;;;;;;6.91;nan;102400.44;5074887;28;20560;-57
2022/10/09 01:15:09;;;;;;;15.52;6.93;;;;;;;6.48;nan;102332.06;5075179;28;20474;-56
2022/10/09 01:17:40;;;;;;;16.88;8.20;;;;;;;6.81;nan;102404.72;5075029;28;20033;-57
2022/10/09 01:20:24;;;;;;;12.80;6.55;;;;;;;6.77;nan;102395.09;5075200;28;20364;-59
2022/10/09 01:23:13;;;;;;;15.32;6.95;;;;;;;6.70;nan;102380.22;5074148;28;20037;-58
2022/10/09 01:25:57;;;;;;;15.07;6.97;;;;;;;6.78;nan;102389.00;5059914;28;20033;-60
2022/10/09 01:28:27;;;;;;;17.08;6.65;;;;;;;6.63;nan;102381.88;5074753;28;20028;-59
2022/10/09 01:30:54;;;;;;;16.25;6.57;;;;;;;6.62;nan;102360.97;5064655;28;20086;-58
2022/10/09 01:33:20;;;;;;;16.73;7.65;;;;;;;6.72;nan;102373.22;5062160;28;20518;-57
2022/10/09 01:35:46;;;;;;;15.85;7.53;;;;;;;6.73;nan;102375.88;5074931;28;20068;-58
2022/10/09 01:38:11;;;;;;;14.85;6.78;;;;;;;6.65;nan;102361.88;5058581;28;20037;-60
2022/10/09 01:40:37;;;;;;;17.25;7.32;;;;;;;6.13;nan;102286.41;5068187;28;20044;-59
2022/10/09 01:43:02;;;;;;;18.50;7.63;;;;;;;6.67;nan;102374.94;5065656;28;20040;-59
2022/10/09 01:45:40;;;;;;;16.35;7.55;;;;;;;6.66;nan;102373.19;5074595;28;20047;-55
2022/10/09 01:48:08;;;;;;;19.05;8.73;;;;;;;6.65;nan;102368.84;5059066;28;20051;-54
2022/10/09 01:50:34;;;;;;;16.15;7.43;;;;;;;6.63;nan;102363.56;5068244;28;20365;-57
2022/10/09 01:53:03;;;;;;;15.60;8.77;;;;;;;6.29;nan;102305.75;5073992;28;20028;-57
2022/10/09 01:55:35;;;;;;;14.57;8.25;;;;;;;6.64;nan;102373.19;5059854;28;20032;-57
2022/10/09 01:58:22;;;;;;;17.23;7.88;;;;;;;6.64;nan;102367.94;5036760;28;20029;-58
2022/10/09 02:00:55;;;;;;;13.40;7.78;;;;;;;6.24;nan;102292.66;5064694;28;20130;-57
2022/10/09 02:03:21;;;;;;;15.40;7.57;;;;;;;6.58;nan;102346.09;5074218;28;20032;-57
2022/10/09 02:05:49;;;;;;;16.33;8.13;;;;;;;6.21;nan;102288.28;5071082;28;20086;-57
2022/10/09 02:08:17;;;;;;;14.73;6.95;;;;;;;6.56;nan;102356.56;5058821;28;20470;-56
2022/10/09 02:10:43;;;;;;;10.93;7.55;;;;;;;6.55;nan;102348.69;5063038;28;20090;-58
2022/10/09 02:13:09;;;;;;;22.25;8.60;;;;;;;6.17;nan;102286.47;5050330;28;20512;-57
2022/10/09 02:16:03;;;;;;;18.88;7.25;;;;;;;6.13;nan;102282.06;5053953;28;20029;-58
2022/10/09 02:18:37;;;;;;;19.35;7.95;;;;;;;6.50;nan;102351.28;5052961;28;20035;-56
2022/10/09 02:21:10;;;;;;;14.10;7.95;;;;;;;6.50;nan;102350.41;5047322;28;20040;-55
2022/10/09 02:23:36;;;;;;;15.18;8.15;;;;;;;6.48;nan;102341.66;5053924;28;20117;-58
2022/10/09 02:26:01;;;;;;;19.98;8.20;;;;;;;6.44;nan;102335.53;5052586;28;20541;-57
2022/10/09 02:28:27;;;;;;;18.27;8.63;;;;;;;6.44;nan;102340.75;5052704;28;20052;-58
2022/10/09 02:31:02;;;;;;;13.70;7.35;;;;;;;6.06;nan;102275.06;5051737;28;20408;-56
2022/10/09 02:33:32;;;;;;;18.80;7.53;;;;;;;6.01;nan;102270.66;5051161;28;20097;-57
2022/10/09 02:35:58;;;;;;;20.45;7.50;;;;;;;6.19;nan;102304.78;5053963;28;20037;-57
2022/10/09 02:38:23;;;;;;;11.88;7.07;;;;;;;5.86;nan;102253.09;5050285;28;20033;-55
2022/10/09 02:40:48;;;;;;;16.83;7.00;;;;;;;5.95;nan;102265.38;5043943;28;20025;-57
2022/10/09 02:43:14;;;;;;;14.75;6.80;;;;;;;6.31;nan;102330.16;5069047;28;20377;-58
2022/10/09 02:45:39;;;;;;;14.73;7.20;;;;;;;5.83;nan;102249.53;5053545;28;20037;-58
2022/10/09 02:48:04;;;;;;;13.20;7.03;;;;;;;6.26;nan;102324.91;5053466;28;20396;-56
2022/10/09 02:50:29;;;;;;;14.90;7.68;;;;;;;6.25;nan;102317.06;5053009;28;20040;-59
2022/10/09 02:52:55;;;;;;;14.75;6.70;;;;;;;5.87;nan;102262.66;5053735;28;20044;-59
2022/10/09 02:55:20;;;;;;;21.83;7.35;;;;;;;5.92;nan;102268.84;5053755;28;20082;-58
2022/10/09 02:57:45;;;;;;;18.20;7.07;;;;;;;6.17;nan;102306.50;5053457;28;20037;-59
2022/10/09 03:00:11;;;;;;;14.32;6.78;;;;;;;6.22;nan;102316.16;5053272;28;20037;-57
2022/10/09 03:02:37;;;;;;;17.02;7.03;;;;;;;6.20;nan;102317.88;5053217;28;20087;-56
2022/10/09 03:05:02;;;;;;;17.55;7.38;;;;;;;5.98;nan;102278.47;5052927;28;20128;-57
2022/10/09 03:07:27;;;;;;;17.23;7.57;;;;;;;5.72;nan;102240.72;5053137;28;20128;-55
2022/10/09 03:09:53;;;;;;;12.23;6.07;;;;;;;6.11;nan;102309.94;5053173;28;20045;-57
2022/10/09 03:12:20;;;;;;;12.15;6.38;;;;;;;6.02;nan;102296.78;5070270;28;20055;-59
2022/10/09 03:14:46;;;;;;;14.38;6.03;;;;;;;6.08;nan;102323.00;5073082;28;20047;-57
2022/10/09 03:17:11;;;;;;;13.73;6.70;;;;;;;6.07;nan;102328.22;5072888;28;20037;-55
2022/10/09 03:19:36;;;;;;;15.50;6.60;;;;;;;6.00;nan;102303.75;5073082;28;20040;-56
2022/10/09 03:22:02;;;;;;;12.70;6.35;;;;;;;6.03;nan;102306.41;5070938;28;20439;-55
2022/10/09 03:24:27;;;;;;;17.95;7.60;;;;;;;6.02;nan;102307.25;5072780;28;20036;-57
2022/10/09 03:26:52;;;;;;;13.18;6.15;;;;;;;6.03;nan;102308.13;5072387;28;20033;-57
2022/10/09 03:29:18;;;;;;;16.52;7.22;;;;;;;5.96;nan;102299.34;5072654;28;20037;-58
2022/10/09 03:31:43;;;;;;;15.30;7.22;;;;;;;5.90;nan;102298.41;5072452;28;20033;-58
2022/10/09 03:34:10;;;;;;;16.30;6.38;;;;;;;5.74;nan;102260.78;5069391;28;20394;-57
2022/10/09 03:36:35;;;;;;;13.55;7.47;;;;;;;5.46;nan;102215.22;5072834;28;20106;-57
2022/10/09 03:39:01;;;;;;;16.75;7.50;;;;;;;5.96;nan;102308.91;5070477;28;20479;-57
2022/10/09 03:41:26;;;;;;;17.58;8.13;;;;;;;5.93;nan;102307.16;5064818;28;20063;-61
2022/10/09 03:43:52;;;;;;;13.00;7.22;;;;;;;5.69;nan;102263.31;5070507;28;20029;-56
2022/10/09 03:46:17;;;;;;;15.23;7.63;;;;;;;5.89;nan;102305.41;5072605;28;20545;-55
2022/10/09 03:48:42;;;;;;;15.65;7.35;;;;;;;5.89;nan;102302.78;5072339;28;20066;-58
2022/10/09 03:51:08;;;;;;;15.13;7.85;;;;;;;5.35;nan;102221.19;5072288;28;20066;-59
2022/10/09 03:53:34;;;;;;;14.50;7.78;;;;;;;5.52;nan;102257.06;5057937;28;20036;-61
2022/10/09 03:55:59;;;;;;;17.70;8.07;;;;;;;5.76;nan;102298.25;5037872;28;20044;-58
2022/10/09 03:58:24;;;;;;;16.73;7.28;;;;;;;5.78;nan;102306.97;5072305;28;20040;-63
2022/10/09 04:00:53;;;;;;;16.48;7.80;;;;;;;5.73;nan;102300.81;5070192;28;20032;-55
2022/10/09 04:03:19;;;;;;;14.50;7.20;;;;;;;5.34;nan;102243.78;5062963;28;20040;-59
2022/10/09 04:05:44;;;;;;;16.83;7.68;;;;;;;5.70;nan;102316.47;5039335;28;20488;-61
2022/10/09 04:08:10;;;;;;;19.92;7.55;;;;;;;5.49;nan;102269.19;5060224;28;20139;-56
2022/10/09 04:10:36;;;;;;;15.02;7.13;;;;;;;5.42;nan;102256.94;5058970;28;20076;-59
2022/10/09 04:13:01;;;;;;;14.77;7.63;;;;;;;5.74;nan;102318.25;5066746;28;20051;-61
2022/10/09 04:15:26;;;;;;;11.20;6.50;;;;;;;5.73;nan;102311.28;5071506;28;20032;-58
2022/10/09 04:17:52;;;;;;;15.65;7.43;;;;;;;5.70;nan;102313.84;5065949;28;20063;-58
2022/10/09 04:20:19;;;;;;;12.40;6.88;;;;;;;5.65;nan;102310.31;5052343;28;20040;-62
2022/10/09 04:22:44;;;;;;;17.05;7.68;;;;;;;5.67;nan;102312.09;5034133;28;20059;-56
2022/10/09 04:25:10;;;;;;;19.15;7.10;;;;;;;5.63;nan;102312.06;5034442;28;20064;-56
2022/10/09 04:27:35;;;;;;;20.60;7.90;;;;;;;5.66;nan;102307.72;5051976;28;20029;-60
2022/10/09 04:30:01;;;;;;;16.42;7.88;;;;;;;5.65;nan;102307.72;5051483;28;20040;-56
2022/10/09 04:32:26;;;;;;;16.13;8.00;;;;;;;5.48;nan;102275.31;5054371;28;20284;-61
2022/10/09 04:34:51;;;;;;;18.77;8.52;;;;;;;5.59;nan;102291.97;5054320;28;20049;-61
2022/10/09 04:37:16;;;;;;;18.00;8.38;;;;;;;5.59;nan;102302.41;5043097;28;20025;-59
2022/10/09 04:39:42;;;;;;;20.00;8.30;;;;;;;5.60;nan;102296.34;5058580;28;20040;-54
2022/10/09 04:42:07;;;;;;;11.98;7.95;;;;;;;5.57;nan;102306.75;5053803;28;20067;-62
2022/10/09 04:44:32;;;;;;;15.95;8.63;;;;;;;5.59;nan;102295.47;5071991;28;20466;-57
2022/10/09 04:46:58;;;;;;;18.00;8.60;;;;;;;5.39;nan;102259.53;5070680;28;20070;-59
2022/10/09 04:49:23;;;;;;;13.05;8.63;;;;;;;5.59;nan;102291.97;5071289;28;20090;-55
2022/10/09 04:51:48;;;;;;;17.10;8.48;;;;;;;5.56;nan;102289.31;5054178;28;20045;-56
2022/10/09 04:54:14;;;;;;;16.38;8.27;;;;;;;5.56;nan;102302.38;5071428;28;20399;-58
2022/10/09 04:56:39;;;;;;;18.95;9.52;;;;;;;5.51;nan;102284.06;5071719;28;20035;-58
2022/10/09 04:59:04;;;;;;;17.92;8.70;;;;;;;5.40;nan;102263.91;5069306;28;20090;-60
2022/10/09 05:01:30;;;;;;;21.83;9.60;;;;;;;5.18;nan;102228.81;5051827;28;20044;-56
2022/10/09 05:03:55;;;;;;;17.98;8.80;;;;;;;5.29;nan;102249.81;5051520;28;20044;-58
2022/10/09 05:06:22;;;;;;;17.60;9.68;;;;;;;5.55;nan;102291.03;5034491;28;20045;-59
2022/10/09 05:08:47;;;;;;;19.33;9.45;;;;;;;5.53;nan;102291.88;5033985;28;20112;-58
2022/10/09 05:11:16;;;;;;;22.77;9.50;;;;;;;5.53;nan;102291.88;5057660;28;20174;-55
2022/10/09 05:13:44;;;;;;;23.95;9.40;;;;;;;5.51;nan;102294.50;5068082;28;20483;-59
2022/10/09 05:16:14;;;;;;;22.42;9.20;;;;;;;5.44;nan;102276.13;5068838;28;20497;-56
2022/10/09 05:18:48;;;;;;;19.63;10.05;;;;;;;5.43;nan;102275.22;5048307;28;20048;-52
2022/10/09 05:21:14;;;;;;;18.50;9.02;;;;;;;5.51;nan;102310.19;5043237;28;20495;-53
2022/10/09 05:23:40;;;;;;;16.48;9.23;;;;;;;5.51;nan;102294.50;5052619;28;20029;-57
2022/10/09 05:26:08;;;;;;;17.48;8.77;;;;;;;5.53;nan;102298.00;5071322;28;20044;-58
2022/10/09 05:28:34;;;;;;;19.33;10.02;;;;;;;5.55;nan;102293.66;5069596;28;20021;-58
2022/10/09 05:31:06;;;;;;;20.17;9.65;;;;;;;5.19;nan;102227.97;5066471;28;20037;-57
2022/10/09 05:33:31;;;;;;;21.85;9.13;;;;;;;5.55;nan;102285.81;5061887;28;20123;-57
2022/10/09 05:36:00;;;;;;;19.30;9.45;;;;;;;5.49;nan;102283.13;5074724;28;20120;-56
2022/10/09 05:38:26;;;;;;;17.17;9.82;;;;;;;5.45;nan;102277.88;5074901;28;20477;-59
2022/10/09 05:40:55;;;;;;;22.08;9.73;;;;;;;5.52;nan;102296.22;5062173;28;20041;-57
2022/10/09 05:43:32;;;;;;;20.88;10.20;;;;;;;5.35;nan;102263.84;5051538;28;20482;-56
2022/10/09 05:46:11;;;;;;;25.52;10.77;;;;;;;5.29;nan;102249.81;5074767;28;20506;-62
2022/10/09 05:48:39;;;;;;;17.23;10.85;;;;;;;5.52;nan;102285.78;5074820;28;20029;-58
2022/10/09 05:51:16;;;;;;;22.60;11.23;;;;;;;5.55;nan;102296.28;5064364;28;20020;-56
2022/10/09 05:53:42;;;;;;;21.55;11.25;;;;;;;5.49;nan;102277.91;5070424;28;20463;-60
2022/10/09 05:56:18;;;;;;;22.80;12.50;;;;;;;5.54;nan;102281.47;5074424;28;20054;-55
2022/10/09 05:58:49;;;;;;;22.10;10.82;;;;;;;5.56;nan;102292.81;5074466;28;20040;-55
2022/10/09 06:01:15;;;;;;;23.33;12.30;;;;;;;5.57;nan;102293.69;5083715;28;20032;-56
2022/10/09 06:03:40;;;;;;;27.92;11.73;;;;;;;5.59;nan;102297.19;5074211;28;20076;-60
2022/10/09 06:06:07;;;;;;;26.20;12.50;;;;;;;5.26;nan;102228.91;5073921;28;20040;-57
2022/10/09 06:08:34;;;;;;;24.33;12.00;;;;;;;5.62;nan;102292.00;5074402;28;20032;-57
2022/10/09 06:11:20;;;;;;;20.20;11.55;;;;;;;5.25;nan;102219.34;5074394;28;20076;-56
2022/10/09 06:13:46;;;;;;;24.42;11.90;;;;;;;5.46;nan;102248.28;5073979;28;20559;-58
2022/10/09 06:16:15;;;;;;;24.40;12.52;;;;;;;5.59;nan;102276.28;5074197;28;20112;-56
2022/10/09 06:18:42;;;;;;;24.55;12.70;;;;;;;5.71;nan;102279.03;5074165;28;20071;-57
2022/10/09 06:21:08;;;;;;;23.52;12.25;;;;;;;5.40;nan;102222.13;5074361;28;20064;-59
2022/10/09 06:23:36;;;;;;;22.55;11.02;;;;;;;5.56;nan;102255.38;5074328;28;20074;-61
2022/10/09 06:26:07;;;;;;;26.08;12.27;;;;;;;5.65;nan;102264.19;5057713;28;20029;-58
2022/10/09 06:28:34;;;;;;;21.65;11.27;;;;;;;5.73;nan;102279.91;5031788;28;20510;-58
2022/10/09 06:31:00;;;;;;;20.83;11.00;;;;;;;5.77;nan;102294.78;5065512;28;20032;-58
2022/10/09 06:33:31;;;;;;;16.17;11.32;;;;;;;5.74;nan;102281.69;5071117;28;20063;-59
2022/10/09 06:36:04;;;;;;;21.92;12.88;;;;;;;5.49;nan;102230.91;5074079;28;20108;-60
2022/10/09 06:38:30;;;;;;;23.90;11.48;;;;;;;5.85;nan;102285.31;5065135;28;20515;-57
2022/10/09 06:41:03;;;;;;;22.10;12.80;;;;;;;5.70;nan;102272.06;5064016;28;20074;-60
2022/10/09 06:43:29;;;;;;;18.45;12.05;;;;;;;5.90;nan;102294.06;5073546;28;20471;-58
2022/10/09 06:45:55;;;;;;;21.02;12.85;;;;;;;5.56;nan;102230.13;5073271;28;20062;-58
2022/10/09 06:48:20;;;;;;;18.20;12.00;;;;;;;5.97;nan;102303.72;5073675;28;20058;-57
2022/10/09 06:50:46;;;;;;;19.75;11.30;;;;;;;6.02;nan;102295.91;5070861;28;20051;-61
2022/10/09 06:53:11;;;;;;;19.80;12.43;;;;;;;6.04;nan;102281.16;5072225;28;20032;-55
2022/10/09 06:55:37;;;;;;;21.98;12.82;;;;;;;6.05;nan;102280.25;5068920;28;20029;-55
2022/10/09 06:58:02;;;;;;;19.08;12.95;;;;;;;6.25;nan;102298.75;5072710;28;20395;-57
2022/10/09 07:00:28;;;;;;;30.75;14.98;;;;;;;6.41;nan;102298.00;5073984;28;20067;-60
2022/10/09 07:02:54;;;;;;;28.20;13.13;;;;;;;6.57;nan;102292.88;5073662;28;20064;-63
2022/10/09 07:05:20;;;;;;;23.80;13.52;;;;;;;6.71;nan;102291.22;5069784;28;20491;-51
2022/10/09 07:07:45;;;;;;;25.25;14.00;;;;;;;6.89;nan;102295.72;5053318;28;20127;-60
2022/10/09 07:10:11;;;;;;;24.40;14.50;;;;;;;7.08;nan;102292.34;5070518;28;20025;-56
2022/10/09 07:12:37;;;;;;;23.23;15.05;;;;;;;7.30;nan;102285.44;5072755;28;20175;-56
2022/10/09 07:15:05;;;;;;;21.75;13.70;;;;;;;6.80;nan;102178.75;5073256;28;20170;-62
2022/10/09 07:17:30;;;;;;;23.65;13.85;;;;;;;7.63;nan;102288.19;5077309;28;20032;-58
2022/10/09 07:19:55;;;;;;;31.88;13.15;;;;;;;7.70;nan;102287.34;5072400;28;20115;-59
2022/10/09 07:22:21;;;;;;;26.48;12.88;;;;;;;7.52;nan;102268.06;5072526;28;20037;-60
2022/10/09 07:24:47;;;;;;;25.30;13.55;;;;;;;7.53;nan;102243.63;5018875;28;20043;-62
2022/10/09 07:27:13;;;;;;;26.95;12.70;;;;;;;7.87;nan;102300.47;5059986;28;20037;-56
2022/10/09 07:29:38;;;;;;;25.27;14.48;;;;;;;7.86;nan;102294.34;5071747;28;20052;-59
2022/10/09 07:32:04;;;;;;;21.45;14.10;;;;;;;7.90;nan;102296.13;5070772;28;20035;-61
2022/10/09 07:34:29;;;;;;;24.45;14.48;;;;;;;7.63;nan;102240.13;5072603;28;20040;-62
2022/10/09 07:36:55;;;;;;;27.25;15.13;;;;;;;8.03;nan;102285.63;5075756;28;20037;-60
2022/10/09 07:39:20;;;;;;;24.60;14.65;;;;;;;7.72;nan;102229.66;5070724;28;20024;-57
2022/10/09 07:41:49;;;;;;;23.63;14.65;;;;;;;8.13;nan;102290.00;5047176;28;20032;-61
2022/10/09 07:44:14;;;;;;;28.63;16.40;;;;;;;8.21;nan;102288.25;5069065;28;20036;-56
2022/10/09 07:46:40;;;;;;;29.20;17.05;;;;;;;8.31;nan;102283.06;5044437;28;20033;-56
2022/10/09 07:49:05;;;;;;;31.17;17.77;;;;;;;8.34;nan;102279.56;5072271;28;20035;-57
2022/10/09 07:51:30;;;;;;;30.80;16.73;;;;;;;8.49;nan;102282.19;5071362;28;20033;-56
2022/10/09 07:53:57;;;;;;;29.40;15.90;;;;;;;8.53;nan;102276.03;5067265;28;20040;-56
2022/10/09 07:56:24;;;;;;;25.40;16.42;;;;;;;8.58;nan;102274.25;5072258;28;20033;-58
2022/10/09 07:58:51;;;;;;;28.20;16.08;;;;;;;8.67;nan;102279.50;5067038;28;20021;-62
2022/10/09 08:01:17;;;;;;;19.58;13.70;;;;;;;8.80;nan;102278.63;5045474;28;20074;-60
2022/10/09 08:03:43;;;;;;;26.38;14.27;;;;;;;8.87;nan;102292.63;5072099;28;20028;-60
2022/10/09 08:06:08;;;;;;;21.58;13.48;;;;;;;8.96;nan;102274.22;5072213;28;20036;-59
2022/10/09 08:08:33;;;;;;;16.00;12.75;;;;;;;9.00;nan;102270.69;5076806;28;20028;-58
2022/10/09 08:10:59;;;;;;;23.88;12.88;;;;;;;9.02;nan;102256.66;5083421;28;20658;-60
2022/10/09 08:13:24;;;;;;;20.58;14.43;;;;;;;9.24;nan;102257.47;5072188;28;20537;-60
2022/10/09 08:15:49;;;;;;;19.40;12.73;;;;;;;9.47;nan;102267.84;5071572;28;20036;-57
2022/10/09 08:18:15;;;;;;;26.20;13.90;;;;;;;9.44;nan;102252.09;5071870;28;20036;-55
2022/10/09 08:20:40;;;;;;;21.92;12.30;;;;;;;9.68;nan;102266.88;5069452;28;20125;-53
2022/10/09 08:23:05;;;;;;;22.33;12.07;;;;;;;9.81;nan;102263.25;5070784;28;20068;-63
2022/10/09 08:25:35;;;;;;;17.30;10.60;;;;;;;9.92;nan;102256.19;5070258;28;20103;-59
2022/10/09 08:28:01;;;;;;;16.35;9.70;;;;;;;10.12;nan;102256.91;5071437;28;20383;-61
2022/10/09 08:30:26;;;;;;;16.10;9.00;;;;;;;10.03;nan;102205.25;5071088;28;20029;-55
2022/10/09 08:32:51;;;;;;;12.52;8.45;;;;;;;10.52;nan;102247.81;5071518;28;20123;-58
2022/10/09 08:35:17;;;;;;;14.07;8.23;;;;;;;10.59;nan;102198.59;5072030;28;20044;-56
2022/10/09 08:37:42;;;;;;;11.40;6.90;;;;;;;11.13;nan;102247.13;5070746;28;20032;-59
2022/10/09 08:40:15;;;;;;;12.68;6.97;;;;;;;11.58;nan;102258.84;5072115;28;20032;-65
2022/10/09 08:42:46;;;;;;;16.45;6.55;;;;;;;11.97;nan;102252.09;5072262;28;20048;-61
2022/10/09 08:45:16;;;;;;;9.45;5.43;;;;;;;12.43;nan;102262.78;5072255;28;20044;-56
2022/10/09 08:47:50;;;;;;;10.95;5.53;;;;;;;12.73;nan;102223.47;5054231;28;20028;-59
2022/10/09 08:50:18;;;;;;;13.50;5.20;;;;;;;13.62;nan;102276.28;5070564;28;20032;-60
2022/10/09 08:52:49;;;;;;;7.88;5.28;;;;;;;14.26;nan;102298.59;5053863;28;20029;-57
2022/10/09 08:55:17;;;;;;;;;;;;;;;14.80;nan;102302.53;5072483;28;20028;-57
2022/10/09 08:57:44;;;;;;;8.65;4.97;;;;;;;15.05;nan;102306.28;5072097;28;19913;-60
2022/10/09 09:00:18;;;;;;;9.38;4.53;;;;;;;15.36;nan;102350.47;5042321;28;20476;-61
2022/10/09 09:02:58;;;;;;;8.75;4.20;;;;;;;15.41;nan;102330.03;5034094;28;20036;-63
2022/10/09 09:05:35;;;;;;;8.35;4.38;;;;;;;15.82;nan;102361.53;5056134;28;20116;-63
2022/10/09 09:08:18;;;;;;;9.00;4.57;;;;;;;16.46;nan;102355.06;5038108;28;20036;-59
2022/10/09 09:10:59;;;;;;;8.98;4.15;;;;;;;17.07;nan;102351.25;5036941;28;20204;-61
2022/10/09 09:13:39;;;;;;;6.28;3.65;;;;;;;17.33;nan;102347.66;5053049;28;20044;-59
2022/10/09 09:16:28;;;;;;;8.02;4.00;;;;;;;17.02;nan;102305.31;5054939;28;20052;-60
2022/10/09 09:19:32;;;;;;;9.30;4.60;;;;;;;17.27;nan;102350.53;5055111;28;20029;-61
2022/10/09 09:21:58;;;;;;;8.48;4.47;;;;;;;16.96;nan;102297.53;5030529;28;20048;-57
2022/10/09 09:24:37;;;;;;;6.22;4.10;;;;;;;16.78;nan;102292.91;5037814;28;20111;-60
2022/10/09 09:27:10;;;;;;;7.55;3.28;;;;;;;16.54;nan;102291.94;5037576;28;20400;-57
2022/10/09 09:29:41;;;;;;;9.05;3.38;;;;;;;16.38;nan;102298.66;5037463;28;20061;-63
2022/10/09 09:32:07;;;;;;;;;;;;;;;16.54;nan;102337.13;5054594;28;20024;-58
2022/10/09 09:34:36;;;;;;;12.30;3.65;;;;;;;16.26;nan;102329.16;5037129;28;19925;-60
2022/10/09 09:37:01;;;;;;;8.35;3.63;;;;;;;16.00;nan;102317.63;5036962;28;20033;-58
2022/10/09 09:39:29;;;;;;;12.98;4.38;;;;;;;15.36;nan;102260.28;5055134;28;20484;-57
2022/10/09 09:42:20;;;;;;;6.40;3.45;;;;;;;15.48;nan;102299.75;5037018;28;20036;-59
2022/10/09 09:44:56;;;;;;;9.32;4.00;;;;;;;15.74;nan;102291.88;5051933;28;20048;-59
2022/10/09 09:47:42;;;;;;;6.25;3.10;;;;;;;15.80;nan;102294.34;5037369;28;20472;-57
2022/10/09 09:50:08;;;;;;;7.70;3.28;;;;;;;15.67;nan;102290.34;5055253;28;20037;-59
2022/10/09 09:52:40;;;;;;;7.43;3.45;;;;;;;15.09;nan;102246.06;5055054;28;20037;-60
2022/10/09 09:55:06;;;;;;;9.45;3.13;;;;;;;15.27;nan;102277.34;5054923;28;20056;-59
2022/10/09 09:57:44;;;;;;;8.30;3.53;;;;;;;15.54;nan;102270.38;5054559;28;20063;-58
2022/10/09 10:00:22;;;;;;;5.53;2.50;;;;;;;16.32;nan;102281.13;5037065;28;20366;-58
2022/10/09 10:02:48;;;;;;;5.90;2.65;;;;;;;16.22;nan;102241.63;5036885;28;20029;-60
2022/10/09 10:05:25;;;;;;;12.50;3.13;;;;;;;15.92;nan;102229.34;5036774;28;20033;-57
2022/10/09 10:07:50;;;;;;;7.47;2.58;;;;;;;15.64;nan;102232.03;5054236;28;20074;-59
2022/10/09 10:10:21;;;;;;;5.80;2.50;;;;;;;15.34;nan;102235.59;5037075;28;20079;-63
2022/10/09 10:12:54;;;;;;;8.98;3.20;;;;;;;15.18;nan;102270.50;5054504;28;20049;-61
2022/10/09 10:15:30;;;;;;;8.57;2.00;;;;;;;15.12;nan;102265.38;5053121;28;20094;-59
2022/10/09 10:18:05;;;;;;;7.07;2.13;;;;;;;15.03;nan;102263.00;5036640;28;20439;-61
2022/10/09 10:20:32;;;;;;;6.00;1.80;;;;;;;15.00;nan;102256.94;5036877;28;20029;-59
2022/10/09 10:22:59;;;;;;;7.25;2.92;;;;;;;14.54;nan;102199.00;5054178;28;20056;-56
2022/10/09 10:25:32;;;;;;;7.13;2.20;;;;;;;14.97;nan;102257.84;5054474;28;20488;-55
2022/10/09 10:28:05;;;;;;;5.53;2.35;;;;;;;14.66;nan;102182.75;5036391;28;20060;-63
2022/10/09 10:30:30;;;;;;;4.90;1.98;;;;;;;14.70;nan;102192.38;5035985;28;20108;-58
2022/10/09 10:33:04;;;;;;;7.90;2.72;;;;;;;15.17;nan;102239.63;5036335;28;20115;-59
2022/10/09 10:35:34;;;;;;;8.60;2.00;;;;;;;15.39;nan;102247.78;5035980;28;20449;-59
2022/10/09 10:38:04;;;;;;;5.30;1.63;;;;;;;15.64;nan;102248.81;5052922;28;20040;-58
2022/10/09 10:40:33;;;;;;;4.70;2.25;;;;;;;15.67;nan;102216.03;5054028;28;20029;-58
2022/10/09 10:43:11;;;;;;;5.13;2.22;;;;;;;16.10;nan;102226.09;5035768;28;20041;-59
2022/10/09 10:45:40;;;;;;;8.60;1.88;;;;;;;16.29;nan;102236.06;5047442;28;20036;-60
2022/10/09 10:48:10;;;;;;;5.53;1.88;;;;;;;16.26;nan;102203.41;5072809;28;20036;-58
2022/10/09 10:50:45;;;;;;;5.53;2.35;;;;;;;16.27;nan;102175.91;5063371;28;20023;-59
2022/10/09 10:53:26;;;;;;;6.78;1.90;;;;;;;16.73;nan;102236.31;5068631;28;20033;-58
2022/10/09 10:55:57;;;;;;;8.37;2.17;;;;;;;16.97;nan;102190.22;5073228;28;20032;-57
2022/10/09 10:58:27;;;;;;;6.68;2.20;;;;;;;17.21;nan;102191.09;5064972;28;20278;-57
2022/10/09 11:00:57;;;;;;;3.75;1.60;;;;;;;17.63;nan;102224.03;5066040;28;20105;-56
2022/10/09 11:03:33;;;;;;;6.10;1.83;;;;;;;18.11;nan;102215.84;5065378;28;20032;-55
2022/10/09 11:06:22;;;;;;;3.20;1.50;;;;;;;18.70;nan;102217.78;5068107;28;20055;-57
2022/10/09 11:08:56;;;;;;;5.60;1.80;;;;;;;19.07;nan;102210.72;5055545;28;20372;-58
2022/10/09 11:11:32;;;;;;;6.97;2.28;;;;;;;19.39;nan;102166.50;5072607;28;20151;-56
2022/10/09 11:13:57;;;;;;;5.57;1.83;;;;;;;20.90;nan;102202.47;5072673;28;20478;-60
2022/10/09 11:16:33;;;;;;;3.63;1.50;;;;;;;21.94;nan;102153.69;5072767;28;20067;-55
2022/10/09 11:19:10;;;;;;;3.15;1.42;;;;;;;23.37;nan;102202.06;5066262;28;20266;-60
2022/10/09 11:22:00;;;;;;;4.60;1.80;;;;;;;24.47;nan;102191.09;5056471;28;20100;-58
2022/10/09 11:24:26;;;;;;;5.97;1.90;;;;;;;24.76;nan;102136.06;5072831;28;20031;-59
2022/10/09 11:26:57;;;;;;;6.32;1.75;;;;;;;25.14;nan;102180.00;5072400;28;20488;-62
2022/10/09 11:29:27;;;;;;;4.53;1.55;;;;;;;25.35;nan;102165.94;5056421;28;20475;-58
2022/10/09 11:31:58;;;;;;;3.33;1.58;;;;;;;25.70;nan;102173.16;5068660;28;20017;-58
2022/10/09 11:34:32;;;;;;;3.85;1.70;;;;;;;25.54;nan;102125.91;5050013;28;20090;-62
2022/10/09 11:36:59;;;;;;;4.22;2.25;;;;;;;25.75;nan;102140.44;5061299;28;20032;-54
2022/10/09 11:39:29;;;;;;;5.15;1.60;;;;;;;25.77;nan;102141.22;5055964;28;20054;-58
2022/10/09 11:41:55;;;;;;;2.83;1.55;;;;;;;25.46;nan;102117.47;5068815;28;20495;-59
2022/10/09 11:44:47;;;;;;;7.00;1.65;;;;;;;26.08;nan;102155.91;5072469;28;20037;-60
2022/10/09 11:47:33;;;;;;;5.63;1.73;;;;;;;26.33;nan;102153.06;5070355;28;20556;-59